sensor_id;sensor_type;location;lat;lon;timestamp;P1;durP1;ratioP1;P2;durP2;ratioP2
15616;SDS011;7908;51.688;7.130;2023-05-29T00:02:03;4.67;;;2.63;;
15616;SDS011;7908;51.688;7.130;2023-05-29T00:04:32;9.20;;;3.00;;
15616;SDS011;7908;51.688;7.130;2023-05-29T00:07:02;4.03;;;2.67;;
15616;SDS011;7908;51.688;7.130;2023-05-29T00:09:32;6.77;;;3.10;;
15616;SDS011;7908;51.688;7.130;2023-05-29T00:12:01;5.17;;;3.23;;
15616;SDS011;7908;51.688;7.130;2023-05-29T00:14:31;4.63;;;2.93;;
15616;SDS011;7908;51.688;7.130;2023-05-29T00:17:09;4.53;;;2.67;;
15616;SDS011;7908;51.688;7.130;2023-05-29T00:19:39;6.43;;;3.50;;
15616;SDS011;7908;51.688;7.130;2023-05-29T00:22:09;5.67;;;3.30;;
15616;SDS011;7908;51.688;7.130;2023-05-29T00:24:39;6.97;;;3.37;;
15616;SDS011;7908;51.688;7.130;2023-05-29T00:27:08;6.30;;;3.20;;
15616;SDS011;7908;51.688;7.130;2023-05-29T00:29:37;9.77;;;3.00;;
15616;SDS011;7908;51.688;7.130;2023-05-29T00:32:09;8.03;;;3.10;;
15616;SDS011;7908;51.688;7.130;2023-05-29T00:34:39;7.03;;;3.30;;
15616;SDS011;7908;51.688;7.130;2023-05-29T00:37:09;7.30;;;3.13;;
15616;SDS011;7908;51.688;7.130;2023-05-29T00:39:38;9.03;;;3.23;;
15616;SDS011;7908;51.688;7.130;2023-05-29T00:42:07;6.67;;;3.23;;
15616;SDS011;7908;51.688;7.130;2023-05-29T00:44:36;6.37;;;2.50;;
15616;SDS011;7908;51.688;7.130;2023-05-29T00:47:05;10.67;;;3.53;;
15616;SDS011;7908;51.688;7.130;2023-05-29T00:49:37;7.60;;;3.00;;
15616;SDS011;7908;51.688;7.130;2023-05-29T00:52:06;9.40;;;3.10;;
15616;SDS011;7908;51.688;7.130;2023-05-29T00:54:36;9.17;;;3.00;;
15616;SDS011;7908;51.688;7.130;2023-05-29T00:57:06;8.57;;;2.97;;
15616;SDS011;7908;51.688;7.130;2023-05-29T00:59:38;8.17;;;2.70;;
15616;SDS011;7908;51.688;7.130;2023-05-29T01:02:09;9.90;;;3.00;;
15616;SDS011;7908;51.688;7.130;2023-05-29T01:04:40;11.13;;;2.97;;
15616;SDS011;7908;51.688;7.130;2023-05-29T01:07:10;10.83;;;2.93;;
15616;SDS011;7908;51.688;7.130;2023-05-29T01:09:39;6.87;;;2.50;;
15616;SDS011;7908;51.688;7.130;2023-05-29T01:12:14;11.20;;;2.90;;
15616;SDS011;7908;51.688;7.130;2023-05-29T01:14:56;10.90;;;3.20;;
15616;SDS011;7908;51.688;7.130;2023-05-29T01:17:43;15.87;;;3.50;;
15616;SDS011;7908;51.688;7.130;2023-05-29T01:20:26;11.97;;;2.93;;
15616;SDS011;7908;51.688;7.130;2023-05-29T01:26:04;9.93;;;3.10;;
15616;SDS011;7908;51.688;7.130;2023-05-29T01:28:42;10.40;;;2.73;;
15616;SDS011;7908;51.688;7.130;2023-05-29T01:31:17;11.70;;;3.10;;
15616;SDS011;7908;51.688;7.130;2023-05-29T01:33:51;11.40;;;2.97;;
15616;SDS011;7908;51.688;7.130;2023-05-29T01:36:21;9.77;;;2.83;;
15616;SDS011;7908;51.688;7.130;2023-05-29T01:38:51;11.60;;;2.83;;
15616;SDS011;7908;51.688;7.130;2023-05-29T01:41:21;10.10;;;3.37;;
15616;SDS011;7908;51.688;7.130;2023-05-29T01:43:53;12.93;;;3.20;;
15616;SDS011;7908;51.688;7.130;2023-05-29T01:46:24;9.83;;;3.47;;
15616;SDS011;7908;51.688;7.130;2023-05-29T01:48:54;12.73;;;3.37;;
15616;SDS011;7908;51.688;7.130;2023-05-29T01:51:24;11.10;;;3.17;;
15616;SDS011;7908;51.688;7.130;2023-05-29T01:53:53;10.93;;;3.10;;
15616;SDS011;7908;51.688;7.130;2023-05-29T01:56:21;13.13;;;3.17;;
15616;SDS011;7908;51.688;7.130;2023-05-29T01:58:50;12.70;;;3.17;;
15616;SDS011;7908;51.688;7.130;2023-05-29T02:01:23;11.10;;;3.00;;
15616;SDS011;7908;51.688;7.130;2023-05-29T02:03:53;15.43;;;3.77;;
15616;SDS011;7908;51.688;7.130;2023-05-29T02:06:21;14.50;;;3.53;;
15616;SDS011;7908;51.688;7.130;2023-05-29T02:08:50;11.57;;;3.53;;
15616;SDS011;7908;51.688;7.130;2023-05-29T02:11:19;15.17;;;4.10;;
15616;SDS011;7908;51.688;7.130;2023-05-29T02:13:48;14.33;;;3.37;;
15616;SDS011;7908;51.688;7.130;2023-05-29T02:16:20;14.10;;;3.77;;
15616;SDS011;7908;51.688;7.130;2023-05-29T02:18:51;16.53;;;3.97;;
15616;SDS011;7908;51.688;7.130;2023-05-29T02:21:21;16.07;;;3.63;;
15616;SDS011;7908;51.688;7.130;2023-05-29T02:23:49;15.53;;;3.20;;
15616;SDS011;7908;51.688;7.130;2023-05-29T02:26:18;12.37;;;3.43;;
15616;SDS011;7908;51.688;7.130;2023-05-29T02:28:47;12.73;;;3.23;;
15616;SDS011;7908;51.688;7.130;2023-05-29T02:31:17;8.13;;;2.70;;
15616;SDS011;7908;51.688;7.130;2023-05-29T02:33:47;12.83;;;2.80;;
15616;SDS011;7908;51.688;7.130;2023-05-29T02:36:16;14.40;;;3.33;;
15616;SDS011;7908;51.688;7.130;2023-05-29T02:38:44;12.20;;;3.50;;
15616;SDS011;7908;51.688;7.130;2023-05-29T02:41:14;13.23;;;3.73;;
15616;SDS011;7908;51.688;7.130;2023-05-29T02:43:43;14.87;;;3.73;;
15616;SDS011;7908;51.688;7.130;2023-05-29T02:46:12;15.30;;;3.83;;
15616;SDS011;7908;51.688;7.130;2023-05-29T02:48:41;16.43;;;3.20;;
15616;SDS011;7908;51.688;7.130;2023-05-29T02:51:11;17.70;;;3.30;;
15616;SDS011;7908;51.688;7.130;2023-05-29T02:53:40;12.37;;;3.20;;
15616;SDS011;7908;51.688;7.130;2023-05-29T02:56:09;12.33;;;3.43;;
15616;SDS011;7908;51.688;7.130;2023-05-29T02:58:38;12.00;;;3.03;;
15616;SDS011;7908;51.688;7.130;2023-05-29T03:01:08;13.07;;;3.10;;
15616;SDS011;7908;51.688;7.130;2023-05-29T03:03:37;15.47;;;3.70;;
15616;SDS011;7908;51.688;7.130;2023-05-29T03:06:06;12.10;;;3.20;;
15616;SDS011;7908;51.688;7.130;2023-05-29T03:08:37;11.80;;;3.43;;
15616;SDS011;7908;51.688;7.130;2023-05-29T03:11:07;10.67;;;3.00;;
15616;SDS011;7908;51.688;7.130;2023-05-29T03:13:37;8.07;;;2.37;;
15616;SDS011;7908;51.688;7.130;2023-05-29T03:16:09;14.30;;;3.03;;
15616;SDS011;7908;51.688;7.130;2023-05-29T03:18:38;13.40;;;2.90;;
15616;SDS011;7908;51.688;7.130;2023-05-29T03:21:08;15.83;;;3.60;;
15616;SDS011;7908;51.688;7.130;2023-05-29T03:23:38;11.93;;;3.60;;
15616;SDS011;7908;51.688;7.130;2023-05-29T03:26:07;10.23;;;2.87;;
15616;SDS011;7908;51.688;7.130;2023-05-29T03:28:37;11.67;;;3.63;;
15616;SDS011;7908;51.688;7.130;2023-05-29T03:31:06;13.83;;;2.90;;
15616;SDS011;7908;51.688;7.130;2023-05-29T03:33:36;14.20;;;3.03;;
15616;SDS011;7908;51.688;7.130;2023-05-29T03:36:06;16.97;;;3.60;;
15616;SDS011;7908;51.688;7.130;2023-05-29T03:38:36;12.03;;;3.33;;
15616;SDS011;7908;51.688;7.130;2023-05-29T03:41:06;12.00;;;3.00;;
15616;SDS011;7908;51.688;7.130;2023-05-29T03:43:35;12.40;;;3.30;;
15616;SDS011;7908;51.688;7.130;2023-05-29T03:46:03;12.83;;;3.10;;
15616;SDS011;7908;51.688;7.130;2023-05-29T03:48:32;14.33;;;3.57;;
15616;SDS011;7908;51.688;7.130;2023-05-29T03:51:01;13.53;;;3.80;;
15616;SDS011;7908;51.688;7.130;2023-05-29T03:53:30;15.77;;;3.60;;
15616;SDS011;7908;51.688;7.130;2023-05-29T03:55:58;7.93;;;2.63;;
15616;SDS011;7908;51.688;7.130;2023-05-29T03:58:32;18.63;;;3.73;;
15616;SDS011;7908;51.688;7.130;2023-05-29T04:01:03;12.13;;;3.07;;
15616;SDS011;7908;51.688;7.130;2023-05-29T04:03:32;15.50;;;3.57;;
15616;SDS011;7908;51.688;7.130;2023-05-29T04:06:00;16.03;;;3.30;;
15616;SDS011;7908;51.688;7.130;2023-05-29T04:08:29;12.37;;;3.20;;
15616;SDS011;7908;51.688;7.130;2023-05-29T04:10:59;14.70;;;3.47;;
15616;SDS011;7908;51.688;7.130;2023-05-29T04:13:28;15.80;;;3.40;;
15616;SDS011;7908;51.688;7.130;2023-05-29T04:15:59;14.10;;;3.23;;
15616;SDS011;7908;51.688;7.130;2023-05-29T04:18:29;15.07;;;3.27;;
15616;SDS011;7908;51.688;7.130;2023-05-29T04:20:57;13.67;;;3.17;;
15616;SDS011;7908;51.688;7.130;2023-05-29T04:23:30;13.17;;;3.17;;
15616;SDS011;7908;51.688;7.130;2023-05-29T04:25:59;11.10;;;2.83;;
15616;SDS011;7908;51.688;7.130;2023-05-29T04:28:29;14.33;;;3.07;;
15616;SDS011;7908;51.688;7.130;2023-05-29T04:30:59;14.30;;;3.40;;
15616;SDS011;7908;51.688;7.130;2023-05-29T04:33:29;14.27;;;3.20;;
15616;SDS011;7908;51.688;7.130;2023-05-29T04:35:59;12.23;;;3.53;;
15616;SDS011;7908;51.688;7.130;2023-05-29T04:38:30;11.20;;;2.77;;
15616;SDS011;7908;51.688;7.130;2023-05-29T04:40:59;18.80;;;3.80;;
15616;SDS011;7908;51.688;7.130;2023-05-29T04:43:28;13.13;;;3.33;;
15616;SDS011;7908;51.688;7.130;2023-05-29T04:45:57;17.50;;;3.73;;
15616;SDS011;7908;51.688;7.130;2023-05-29T04:48:28;13.67;;;3.40;;
15616;SDS011;7908;51.688;7.130;2023-05-29T04:50:56;10.43;;;2.80;;
15616;SDS011;7908;51.688;7.130;2023-05-29T04:53:29;9.57;;;2.60;;
15616;SDS011;7908;51.688;7.130;2023-05-29T04:55:58;9.80;;;2.97;;
15616;SDS011;7908;51.688;7.130;2023-05-29T04:58:27;12.57;;;2.90;;
15616;SDS011;7908;51.688;7.130;2023-05-29T05:00:55;13.03;;;3.00;;
15616;SDS011;7908;51.688;7.130;2023-05-29T05:03:26;18.37;;;3.47;;
15616;SDS011;7908;51.688;7.130;2023-05-29T05:05:57;14.33;;;3.13;;
15616;SDS011;7908;51.688;7.130;2023-05-29T05:08:26;13.43;;;2.87;;
15616;SDS011;7908;51.688;7.130;2023-05-29T05:10:55;10.80;;;2.93;;
15616;SDS011;7908;51.688;7.130;2023-05-29T05:13:25;13.20;;;2.77;;
15616;SDS011;7908;51.688;7.130;2023-05-29T05:15:54;12.63;;;3.30;;
15616;SDS011;7908;51.688;7.130;2023-05-29T05:18:23;11.87;;;3.43;;
15616;SDS011;7908;51.688;7.130;2023-05-29T05:20:53;14.53;;;3.27;;
15616;SDS011;7908;51.688;7.130;2023-05-29T05:23:23;12.97;;;3.30;;
15616;SDS011;7908;51.688;7.130;2023-05-29T05:25:51;16.23;;;3.20;;
15616;SDS011;7908;51.688;7.130;2023-05-29T05:28:21;10.30;;;2.53;;
15616;SDS011;7908;51.688;7.130;2023-05-29T05:30:50;12.77;;;2.50;;
15616;SDS011;7908;51.688;7.130;2023-05-29T05:33:19;15.50;;;3.30;;
15616;SDS011;7908;51.688;7.130;2023-05-29T05:35:48;10.73;;;2.83;;
15616;SDS011;7908;51.688;7.130;2023-05-29T05:38:31;12.73;;;3.10;;
15616;SDS011;7908;51.688;7.130;2023-05-29T05:41:01;12.53;;;2.30;;
15616;SDS011;7908;51.688;7.130;2023-05-29T05:43:30;14.47;;;2.80;;
15616;SDS011;7908;51.688;7.130;2023-05-29T05:45:58;12.30;;;2.83;;
15616;SDS011;7908;51.688;7.130;2023-05-29T05:48:29;10.83;;;2.83;;
15616;SDS011;7908;51.688;7.130;2023-05-29T05:50:57;12.03;;;2.77;;
15616;SDS011;7908;51.688;7.130;2023-05-29T05:53:26;12.37;;;3.33;;
15616;SDS011;7908;51.688;7.130;2023-05-29T05:55:57;16.70;;;3.27;;
15616;SDS011;7908;51.688;7.130;2023-05-29T05:58:26;11.80;;;2.73;;
15616;SDS011;7908;51.688;7.130;2023-05-29T06:00:54;13.00;;;3.17;;
15616;SDS011;7908;51.688;7.130;2023-05-29T06:03:23;14.07;;;2.70;;
15616;SDS011;7908;51.688;7.130;2023-05-29T06:05:54;13.00;;;2.73;;
15616;SDS011;7908;51.688;7.130;2023-05-29T06:08:23;12.57;;;2.53;;
15616;SDS011;7908;51.688;7.130;2023-05-29T06:10:52;11.03;;;3.03;;
15616;SDS011;7908;51.688;7.130;2023-05-29T06:13:22;11.23;;;2.50;;
15616;SDS011;7908;51.688;7.130;2023-05-29T06:15:51;10.23;;;2.40;;
15616;SDS011;7908;51.688;7.130;2023-05-29T06:18:20;10.43;;;2.83;;
15616;SDS011;7908;51.688;7.130;2023-05-29T06:20:50;12.13;;;2.77;;
15616;SDS011;7908;51.688;7.130;2023-05-29T06:23:20;12.07;;;2.63;;
15616;SDS011;7908;51.688;7.130;2023-05-29T06:25:51;10.57;;;2.60;;
15616;SDS011;7908;51.688;7.130;2023-05-29T06:28:20;14.30;;;2.70;;
15616;SDS011;7908;51.688;7.130;2023-05-29T06:30:51;14.13;;;2.70;;
15616;SDS011;7908;51.688;7.130;2023-05-29T06:33:21;15.17;;;2.73;;
15616;SDS011;7908;51.688;7.130;2023-05-29T06:35:50;8.97;;;2.63;;
15616;SDS011;7908;51.688;7.130;2023-05-29T06:38:20;9.97;;;2.40;;
15616;SDS011;7908;51.688;7.130;2023-05-29T06:40:51;9.43;;;2.80;;
15616;SDS011;7908;51.688;7.130;2023-05-29T06:43:20;15.03;;;2.47;;
15616;SDS011;7908;51.688;7.130;2023-05-29T06:45:51;12.13;;;2.73;;
15616;SDS011;7908;51.688;7.130;2023-05-29T06:48:20;11.20;;;2.40;;
15616;SDS011;7908;51.688;7.130;2023-05-29T06:50:48;11.43;;;2.93;;
15616;SDS011;7908;51.688;7.130;2023-05-29T06:53:18;11.30;;;2.93;;
15616;SDS011;7908;51.688;7.130;2023-05-29T06:55:47;12.27;;;2.60;;
15616;SDS011;7908;51.688;7.130;2023-05-29T06:58:17;9.43;;;2.40;;
15616;SDS011;7908;51.688;7.130;2023-05-29T07:00:45;9.03;;;2.53;;
15616;SDS011;7908;51.688;7.130;2023-05-29T07:03:19;14.53;;;2.60;;
15616;SDS011;7908;51.688;7.130;2023-05-29T07:05:48;11.73;;;3.33;;
15616;SDS011;7908;51.688;7.130;2023-05-29T07:08:17;15.50;;;2.83;;
15616;SDS011;7908;51.688;7.130;2023-05-29T07:10:46;13.53;;;2.60;;
15616;SDS011;7908;51.688;7.130;2023-05-29T07:13:16;9.17;;;2.70;;
15616;SDS011;7908;51.688;7.130;2023-05-29T07:15:47;9.57;;;2.70;;
15616;SDS011;7908;51.688;7.130;2023-05-29T07:18:17;11.00;;;2.90;;
15616;SDS011;7908;51.688;7.130;2023-05-29T07:20:46;10.17;;;2.57;;
15616;SDS011;7908;51.688;7.130;2023-05-29T07:23:15;8.43;;;2.40;;
15616;SDS011;7908;51.688;7.130;2023-05-29T07:25:44;9.33;;;2.57;;
15616;SDS011;7908;51.688;7.130;2023-05-29T07:28:14;11.77;;;2.60;;
15616;SDS011;7908;51.688;7.130;2023-05-29T07:30:48;10.63;;;2.90;;
15616;SDS011;7908;51.688;7.130;2023-05-29T07:33:19;14.47;;;2.40;;
15616;SDS011;7908;51.688;7.130;2023-05-29T07:35:48;10.03;;;2.53;;
15616;SDS011;7908;51.688;7.130;2023-05-29T07:38:19;10.57;;;3.27;;
15616;SDS011;7908;51.688;7.130;2023-05-29T07:40:49;9.97;;;2.70;;
15616;SDS011;7908;51.688;7.130;2023-05-29T07:43:18;8.60;;;2.50;;
15616;SDS011;7908;51.688;7.130;2023-05-29T07:45:47;12.13;;;2.53;;
15616;SDS011;7908;51.688;7.130;2023-05-29T07:48:16;11.83;;;2.57;;
15616;SDS011;7908;51.688;7.130;2023-05-29T07:50:50;11.40;;;2.40;;
15616;SDS011;7908;51.688;7.130;2023-05-29T07:53:20;7.47;;;2.10;;
15616;SDS011;7908;51.688;7.130;2023-05-29T07:55:49;10.07;;;3.10;;
15616;SDS011;7908;51.688;7.130;2023-05-29T07:58:18;13.50;;;3.00;;
15616;SDS011;7908;51.688;7.130;2023-05-29T08:00:49;9.63;;;2.73;;
15616;SDS011;7908;51.688;7.130;2023-05-29T08:03:20;12.00;;;2.33;;
15616;SDS011;7908;51.688;7.130;2023-05-29T08:05:51;13.97;;;2.87;;
15616;SDS011;7908;51.688;7.130;2023-05-29T08:08:20;12.17;;;2.93;;
15616;SDS011;7908;51.688;7.130;2023-05-29T08:10:49;8.93;;;2.43;;
15616;SDS011;7908;51.688;7.130;2023-05-29T08:13:18;10.43;;;2.33;;
15616;SDS011;7908;51.688;7.130;2023-05-29T08:15:47;8.80;;;2.80;;
15616;SDS011;7908;51.688;7.130;2023-05-29T08:18:17;8.53;;;2.20;;
15616;SDS011;7908;51.688;7.130;2023-05-29T08:20:47;12.70;;;3.20;;
15616;SDS011;7908;51.688;7.130;2023-05-29T08:23:20;12.90;;;2.70;;
15616;SDS011;7908;51.688;7.130;2023-05-29T08:25:50;10.60;;;2.33;;
15616;SDS011;7908;51.688;7.130;2023-05-29T08:28:18;9.33;;;2.20;;
15616;SDS011;7908;51.688;7.130;2023-05-29T08:30:48;12.47;;;2.63;;
15616;SDS011;7908;51.688;7.130;2023-05-29T08:33:19;11.33;;;2.50;;
15616;SDS011;7908;51.688;7.130;2023-05-29T08:35:48;8.70;;;2.93;;
15616;SDS011;7908;51.688;7.130;2023-05-29T08:38:17;10.67;;;2.70;;
15616;SDS011;7908;51.688;7.130;2023-05-29T08:40:48;11.73;;;2.87;;
15616;SDS011;7908;51.688;7.130;2023-05-29T08:43:21;10.57;;;2.67;;
15616;SDS011;7908;51.688;7.130;2023-05-29T08:45:52;9.10;;;2.10;;
15616;SDS011;7908;51.688;7.130;2023-05-29T08:48:25;11.30;;;2.40;;
15616;SDS011;7908;51.688;7.130;2023-05-29T08:50:57;11.93;;;2.53;;
15616;SDS011;7908;51.688;7.130;2023-05-29T08:53:27;10.83;;;2.80;;
15616;SDS011;7908;51.688;7.130;2023-05-29T08:55:59;8.47;;;2.57;;
15616;SDS011;7908;51.688;7.130;2023-05-29T08:58:29;10.13;;;2.67;;
15616;SDS011;7908;51.688;7.130;2023-05-29T09:01:00;9.43;;;2.33;;
15616;SDS011;7908;51.688;7.130;2023-05-29T09:03:30;9.47;;;2.13;;
15616;SDS011;7908;51.688;7.130;2023-05-29T09:05:59;10.03;;;2.53;;
15616;SDS011;7908;51.688;7.130;2023-05-29T09:08:30;7.27;;;2.50;;
15616;SDS011;7908;51.688;7.130;2023-05-29T09:11:01;8.77;;;2.50;;
15616;SDS011;7908;51.688;7.130;2023-05-29T09:13:29;8.13;;;2.50;;
15616;SDS011;7908;51.688;7.130;2023-05-29T09:16:00;5.60;;;2.20;;
15616;SDS011;7908;51.688;7.130;2023-05-29T09:18:30;9.80;;;2.73;;
15616;SDS011;7908;51.688;7.130;2023-05-29T09:20:59;10.53;;;2.50;;
15616;SDS011;7908;51.688;7.130;2023-05-29T09:23:36;11.47;;;2.60;;
15616;SDS011;7908;51.688;7.130;2023-05-29T09:26:07;10.63;;;1.87;;
15616;SDS011;7908;51.688;7.130;2023-05-29T09:28:36;7.53;;;2.07;;
15616;SDS011;7908;51.688;7.130;2023-05-29T09:31:13;10.17;;;2.77;;
15616;SDS011;7908;51.688;7.130;2023-05-29T09:33:47;9.50;;;2.40;;
15616;SDS011;7908;51.688;7.130;2023-05-29T09:36:20;10.77;;;2.60;;
15616;SDS011;7908;51.688;7.130;2023-05-29T09:38:49;10.00;;;2.63;;
15616;SDS011;7908;51.688;7.130;2023-05-29T09:41:29;10.10;;;2.27;;
15616;SDS011;7908;51.688;7.130;2023-05-29T09:44:00;11.70;;;3.00;;
15616;SDS011;7908;51.688;7.130;2023-05-29T09:46:33;8.77;;;2.57;;
15616;SDS011;7908;51.688;7.130;2023-05-29T09:49:03;8.03;;;2.00;;
15616;SDS011;7908;51.688;7.130;2023-05-29T09:51:38;9.33;;;2.07;;
15616;SDS011;7908;51.688;7.130;2023-05-29T09:54:15;9.93;;;2.20;;
15616;SDS011;7908;51.688;7.130;2023-05-29T09:56:47;10.83;;;2.57;;
15616;SDS011;7908;51.688;7.130;2023-05-29T09:59:18;9.13;;;2.27;;
15616;SDS011;7908;51.688;7.130;2023-05-29T10:01:48;8.07;;;2.43;;
15616;SDS011;7908;51.688;7.130;2023-05-29T10:04:22;7.93;;;2.53;;
15616;SDS011;7908;51.688;7.130;2023-05-29T10:06:51;11.70;;;2.43;;
15616;SDS011;7908;51.688;7.130;2023-05-29T10:09:23;8.07;;;2.23;;
15616;SDS011;7908;51.688;7.130;2023-05-29T10:11:58;8.03;;;2.00;;
15616;SDS011;7908;51.688;7.130;2023-05-29T10:14:31;6.63;;;2.10;;
15616;SDS011;7908;51.688;7.130;2023-05-29T10:17:01;6.23;;;2.30;;
15616;SDS011;7908;51.688;7.130;2023-05-29T10:19:35;9.77;;;2.07;;
15616;SDS011;7908;51.688;7.130;2023-05-29T10:22:05;7.67;;;2.50;;
15616;SDS011;7908;51.688;7.130;2023-05-29T10:24:37;7.30;;;2.47;;
15616;SDS011;7908;51.688;7.130;2023-05-29T10:27:08;10.67;;;2.70;;
15616;SDS011;7908;51.688;7.130;2023-05-29T10:29:39;10.13;;;2.73;;
15616;SDS011;7908;51.688;7.130;2023-05-29T10:32:20;9.40;;;2.37;;
15616;SDS011;7908;51.688;7.130;2023-05-29T10:34:55;8.13;;;2.20;;
15616;SDS011;7908;51.688;7.130;2023-05-29T10:37:37;7.43;;;2.17;;
15616;SDS011;7908;51.688;7.130;2023-05-29T10:40:11;9.37;;;2.60;;
15616;SDS011;7908;51.688;7.130;2023-05-29T10:42:43;6.77;;;1.87;;
15616;SDS011;7908;51.688;7.130;2023-05-29T10:48:39;8.77;;;2.13;;
15616;SDS011;7908;51.688;7.130;2023-05-29T10:53:55;8.17;;;2.10;;
15616;SDS011;7908;51.688;7.130;2023-05-29T10:56:28;8.30;;;2.30;;
15616;SDS011;7908;51.688;7.130;2023-05-29T10:59:00;5.72;;;1.95;;
15616;SDS011;7908;51.688;7.130;2023-05-29T11:01:30;8.55;;;2.67;;
15616;SDS011;7908;51.688;7.130;2023-05-29T11:06:54;6.25;;;2.10;;
15616;SDS011;7908;51.688;7.130;2023-05-29T11:09:27;7.03;;;2.30;;
15616;SDS011;7908;51.688;7.130;2023-05-29T11:12:11;6.90;;;2.28;;
15616;SDS011;7908;51.688;7.130;2023-05-29T11:15:02;7.93;;;2.17;;
15616;SDS011;7908;51.688;7.130;2023-05-29T11:17:42;7.25;;;2.25;;
15616;SDS011;7908;51.688;7.130;2023-05-29T11:20:23;7.38;;;2.10;;
15616;SDS011;7908;51.688;7.130;2023-05-29T11:23:00;7.13;;;2.03;;
15616;SDS011;7908;51.688;7.130;2023-05-29T11:25:35;7.45;;;2.10;;
15616;SDS011;7908;51.688;7.130;2023-05-29T11:28:08;9.00;;;2.15;;
15616;SDS011;7908;51.688;7.130;2023-05-29T11:30:42;6.10;;;2.13;;
15616;SDS011;7908;51.688;7.130;2023-05-29T11:33:16;8.48;;;2.17;;
15616;SDS011;7908;51.688;7.130;2023-05-29T11:35:54;8.55;;;4.38;;
15616;SDS011;7908;51.688;7.130;2023-05-29T11:38:26;8.38;;;4.38;;
15616;SDS011;7908;51.688;7.130;2023-05-29T11:40:57;5.22;;;2.53;;
15616;SDS011;7908;51.688;7.130;2023-05-29T11:43:31;5.30;;;2.00;;
15616;SDS011;7908;51.688;7.130;2023-05-29T11:46:02;7.88;;;2.28;;
15616;SDS011;7908;51.688;7.130;2023-05-29T11:48:44;5.65;;;2.10;;
15616;SDS011;7908;51.688;7.130;2023-05-29T11:51:13;5.45;;;2.33;;
15616;SDS011;7908;51.688;7.130;2023-05-29T11:53:43;7.70;;;2.45;;
15616;SDS011;7908;51.688;7.130;2023-05-29T11:56:16;6.70;;;2.10;;
15616;SDS011;7908;51.688;7.130;2023-05-29T11:58:45;7.70;;;2.22;;
15616;SDS011;7908;51.688;7.130;2023-05-29T12:01:17;7.15;;;2.40;;
15616;SDS011;7908;51.688;7.130;2023-05-29T12:03:47;8.88;;;2.00;;
15616;SDS011;7908;51.688;7.130;2023-05-29T12:06:17;7.05;;;2.00;;
15616;SDS011;7908;51.688;7.130;2023-05-29T12:09:00;6.10;;;2.15;;
15616;SDS011;7908;51.688;7.130;2023-05-29T12:11:31;4.45;;;1.60;;
15616;SDS011;7908;51.688;7.130;2023-05-29T12:14:02;7.63;;;2.22;;
15616;SDS011;7908;51.688;7.130;2023-05-29T12:16:33;11.95;;;2.70;;
15616;SDS011;7908;51.688;7.130;2023-05-29T12:19:03;5.55;;;2.10;;
15616;SDS011;7908;51.688;7.130;2023-05-29T12:21:32;6.32;;;2.17;;
15616;SDS011;7908;51.688;7.130;2023-05-29T12:24:04;7.43;;;2.20;;
15616;SDS011;7908;51.688;7.130;2023-05-29T12:26:41;4.85;;;1.75;;
15616;SDS011;7908;51.688;7.130;2023-05-29T12:29:11;8.02;;;2.17;;
15616;SDS011;7908;51.688;7.130;2023-05-29T12:31:42;9.38;;;2.50;;
15616;SDS011;7908;51.688;7.130;2023-05-29T12:34:13;5.45;;;2.00;;
15616;SDS011;7908;51.688;7.130;2023-05-29T12:36:42;6.18;;;1.90;;
15616;SDS011;7908;51.688;7.130;2023-05-29T12:39:11;6.57;;;2.33;;
15616;SDS011;7908;51.688;7.130;2023-05-29T12:41:41;6.25;;;2.72;;
15616;SDS011;7908;51.688;7.130;2023-05-29T12:44:10;10.80;;;4.35;;
15616;SDS011;7908;51.688;7.130;2023-05-29T12:46:39;8.23;;;5.00;;
15616;SDS011;7908;51.688;7.130;2023-05-29T12:49:13;8.85;;;3.88;;
15616;SDS011;7908;51.688;7.130;2023-05-29T12:51:43;4.32;;;2.38;;
15616;SDS011;7908;51.688;7.130;2023-05-29T12:54:15;5.65;;;2.00;;
15616;SDS011;7908;51.688;7.130;2023-05-29T12:56:45;6.05;;;1.98;;
15616;SDS011;7908;51.688;7.130;2023-05-29T12:59:14;5.03;;;2.00;;
15616;SDS011;7908;51.688;7.130;2023-05-29T13:01:48;7.47;;;2.03;;
15616;SDS011;7908;51.688;7.130;2023-05-29T13:04:17;4.65;;;1.88;;
15616;SDS011;7908;51.688;7.130;2023-05-29T13:06:46;5.50;;;1.90;;
15616;SDS011;7908;51.688;7.130;2023-05-29T13:09:15;8.75;;;2.25;;
15616;SDS011;7908;51.688;7.130;2023-05-29T13:11:45;8.55;;;2.08;;
15616;SDS011;7908;51.688;7.130;2023-05-29T13:14:14;6.82;;;2.25;;
15616;SDS011;7908;51.688;7.130;2023-05-29T13:16:43;8.73;;;2.97;;
15616;SDS011;7908;51.688;7.130;2023-05-29T13:19:19;5.55;;;2.03;;
15616;SDS011;7908;51.688;7.130;2023-05-29T13:21:50;6.93;;;2.45;;
15616;SDS011;7908;51.688;7.130;2023-05-29T13:24:19;7.50;;;2.22;;
15616;SDS011;7908;51.688;7.130;2023-05-29T13:26:51;6.95;;;2.20;;
15616;SDS011;7908;51.688;7.130;2023-05-29T13:29:20;6.45;;;2.63;;
15616;SDS011;7908;51.688;7.130;2023-05-29T13:31:50;7.03;;;2.17;;
15616;SDS011;7908;51.688;7.130;2023-05-29T13:34:21;6.68;;;1.85;;
15616;SDS011;7908;51.688;7.130;2023-05-29T13:36:55;6.55;;;2.22;;
15616;SDS011;7908;51.688;7.130;2023-05-29T13:39:24;6.30;;;2.38;;
15616;SDS011;7908;51.688;7.130;2023-05-29T13:41:53;9.38;;;2.30;;
15616;SDS011;7908;51.688;7.130;2023-05-29T13:44:22;6.75;;;2.30;;
15616;SDS011;7908;51.688;7.130;2023-05-29T13:46:51;7.93;;;2.40;;
15616;SDS011;7908;51.688;7.130;2023-05-29T13:49:23;6.68;;;2.10;;
15616;SDS011;7908;51.688;7.130;2023-05-29T13:51:54;8.05;;;1.83;;
15616;SDS011;7908;51.688;7.130;2023-05-29T13:54:23;7.53;;;2.35;;
15616;SDS011;7908;51.688;7.130;2023-05-29T13:56:56;7.20;;;2.25;;
15616;SDS011;7908;51.688;7.130;2023-05-29T13:59:26;7.88;;;2.30;;
15616;SDS011;7908;51.688;7.130;2023-05-29T14:01:55;7.47;;;2.05;;
15616;SDS011;7908;51.688;7.130;2023-05-29T14:04:28;7.40;;;2.22;;
15616;SDS011;7908;51.688;7.130;2023-05-29T14:06:57;6.65;;;2.80;;
15616;SDS011;7908;51.688;7.130;2023-05-29T14:09:26;8.18;;;2.35;;
15616;SDS011;7908;51.688;7.130;2023-05-29T14:11:56;7.28;;;2.53;;
15616;SDS011;7908;51.688;7.130;2023-05-29T14:14:29;6.07;;;2.25;;
15616;SDS011;7908;51.688;7.130;2023-05-29T14:16:58;7.60;;;2.35;;
15616;SDS011;7908;51.688;7.130;2023-05-29T14:19:31;8.38;;;2.70;;
15616;SDS011;7908;51.688;7.130;2023-05-29T14:22:01;6.40;;;1.98;;
15616;SDS011;7908;51.688;7.130;2023-05-29T14:24:30;6.88;;;2.35;;
15616;SDS011;7908;51.688;7.130;2023-05-29T14:26:59;8.02;;;2.60;;
15616;SDS011;7908;51.688;7.130;2023-05-29T14:29:30;5.40;;;1.95;;
15616;SDS011;7908;51.688;7.130;2023-05-29T14:32:01;6.38;;;2.30;;
15616;SDS011;7908;51.688;7.130;2023-05-29T14:34:32;6.45;;;2.13;;
15616;SDS011;7908;51.688;7.130;2023-05-29T14:37:01;7.30;;;2.00;;
15616;SDS011;7908;51.688;7.130;2023-05-29T14:39:30;5.85;;;1.90;;
15616;SDS011;7908;51.688;7.130;2023-05-29T14:41:59;8.68;;;2.15;;
15616;SDS011;7908;51.688;7.130;2023-05-29T14:44:29;6.75;;;2.15;;
15616;SDS011;7908;51.688;7.130;2023-05-29T14:47:00;6.22;;;2.15;;
15616;SDS011;7908;51.688;7.130;2023-05-29T14:49:37;5.75;;;2.08;;
15616;SDS011;7908;51.688;7.130;2023-05-29T14:52:06;6.65;;;2.50;;
15616;SDS011;7908;51.688;7.130;2023-05-29T14:54:36;4.85;;;2.08;;
15616;SDS011;7908;51.688;7.130;2023-05-29T14:57:05;6.88;;;2.00;;
15616;SDS011;7908;51.688;7.130;2023-05-29T14:59:36;8.85;;;2.38;;
15616;SDS011;7908;51.688;7.130;2023-05-29T15:02:05;8.05;;;1.90;;
15616;SDS011;7908;51.688;7.130;2023-05-29T15:04:35;9.77;;;2.60;;
15616;SDS011;7908;51.688;7.130;2023-05-29T15:07:05;10.07;;;2.80;;
15616;SDS011;7908;51.688;7.130;2023-05-29T15:09:35;8.52;;;3.35;;
15616;SDS011;7908;51.688;7.130;2023-05-29T15:12:04;7.15;;;2.35;;
15616;SDS011;7908;51.688;7.130;2023-05-29T15:14:34;5.05;;;2.03;;
15616;SDS011;7908;51.688;7.130;2023-05-29T15:17:06;6.60;;;2.17;;
15616;SDS011;7908;51.688;7.130;2023-05-29T15:19:36;8.18;;;2.33;;
15616;SDS011;7908;51.688;7.130;2023-05-29T15:22:07;5.25;;;2.00;;
15616;SDS011;7908;51.688;7.130;2023-05-29T15:24:36;7.47;;;2.20;;
15616;SDS011;7908;51.688;7.130;2023-05-29T15:27:05;4.82;;;2.05;;
15616;SDS011;7908;51.688;7.130;2023-05-29T15:29:35;4.13;;;1.70;;